Terminal Aerodrome Forecast
Issued by NWS Binghamton, NY

Home | Current Version | Previous Version | Text Only | Print | Product List | Glossary On
Versions: 1 2 3 4 5 6 7 8 9 10 11 12 13 14 15 16 17
000
FTUS41 KBGM 200859 AAA
TAFAVP
TAF AMD
KAVP 200859Z 2009/2106 22004KT P6SM OVC005
      TEMPO 2009/2012 2SM BR BKN010
     FM201300 30010KT P6SM SCT060
     FM210100 22003KT P6SM SKC=

USA.gov is the U.S. government's official web portal to all federal, state and local government web resources and services.